| time (UTC) | temp C | wind direction | speed KPH | gust KPH | rain 1hr cm | rain 24hr cm | rain mn cm | humidity % | barometer mb |
| 20260510121032 | 19 | 73 | 0.0 | 0.0 | 0.00 | 0.15 | 0.00 | ||
| 20260510115956 | 18 | 56 | 9.7 | 9.7 | 0.00 | 0.15 | 0.00 | ||
| 20260510114920 | 18 | 65 | 9.7 | 8.0 | 0.00 | 0.15 | 0.00 | ||
| 20260510113844 | 18 | 82 | 8.0 | 9.7 | 0.00 | 0.00 | 0.15 | ||
| 20260510112809 | 19 | 45 | 9.7 | 9.7 | 0.00 | 0.00 | 0.15 | ||
| 20260510111734 | 19 | 62 | 9.7 | 9.7 | 0.00 | 0.00 | 0.15 | ||
| 20260510110657 | 19 | 108 | 11.3 | 12.9 | 0.00 | 0.00 | 0.15 | ||
| 20260510105621 | 19 | 108 | 9.7 | 11.3 | 0.00 | 0.00 | 0.15 | ||
| 20260510104545 | 19 | 110 | 11.3 | 11.3 | 0.00 | 0.00 | 0.15 | ||
| 20260510103510 | 20 | 96 | 8.0 | 9.7 | 0.00 | 0.00 | 0.15 | ||
| 20260510102434 | 20 | 100 | 11.3 | 11.3 | 0.00 | 0.00 | 0.15 | ||
| 20260510101359 | 19 | 82 | 8.0 | 9.7 | 0.00 | 0.00 | 0.15 | ||
| 20260510100322 | 20 | 60 | 0.0 | 0.0 | 0.00 | 0.00 | 0.15 | ||
| 20260510095246 | 20 | 45 | 8.0 | 8.0 | 0.00 | 0.00 | 0.15 | ||
| 20260510094211 | 20 | 55 | 8.0 | 8.0 | 0.00 | 0.00 | 0.15 | ||
| 20260510093135 | 20 | 45 | 9.7 | 9.7 | 0.00 | 0.00 | 0.15 | ||
| 20260510092059 | 20 | 359 | 6.4 | 8.0 | 0.00 | 0.00 | 0.15 | ||
| 20260510091023 | 20 | 59 | 1.6 | 0.0 | 0.00 | 0.00 | 0.15 | ||
| 20260510085947 | 20 | 100 | 4.8 | 3.2 | 0.00 | 0.00 | 0.15 | ||
| 20260510084912 | 21 | 359 | 8.0 | 8.0 | 0.00 | 0.00 | 0.15 | ||
| 20260510083836 | 21 | 113 | 8.0 | 8.0 | 0.00 | 0.00 | 0.15 | ||
| 20260510082800 | 21 | 100 | 0.0 | 0.0 | 0.00 | 0.00 | 0.15 | ||
| 20260510081724 | 21 | 114 | 8.0 | 8.0 | 0.00 | 0.00 | 0.15 | ||
| 20260510080645 | 21 | 80 | 0.0 | 0.0 | 0.00 | 0.00 | 0.15 | ||
| 20260510075609 | 21 | 359 | 8.0 | 0.0 | 0.00 | 0.00 | 0.15 | ||
| 20260510074534 | 21 | 101 | 3.2 | 6.4 | 0.00 | 0.00 | 0.15 | ||
| 20260510073458 | 21 | 98 | 6.4 | 6.4 | 0.00 | 0.00 | 0.15 | ||
| 20260510072422 | 21 | 111 | 8.0 | 8.0 | 0.00 | 0.00 | 0.15 | ||
| 20260510071346 | 22 | 122 | 8.0 | 8.0 | 0.00 | 0.00 | 0.15 | ||
| 20260510070310 | 22 | 115 | 9.7 | 9.7 | 0.00 | 0.00 | 0.15 | ||
| 20260510065235 | 22 | 143 | 8.0 | 8.0 | 0.00 | 0.00 | 0.15 | ||
| 20260510064159 | 22 | 132 | 11.3 | 8.0 | 0.00 | 0.00 | 0.15 | ||
| 20260510063123 | 22 | 134 | 9.7 | 6.4 | 0.00 | 0.00 | 0.15 | ||
| 20260510062047 | 23 | 122 | 9.7 | 11.3 | 0.00 | 0.00 | 0.15 | ||
| 20260510061011 | 23 | 142 | 9.7 | 8.0 | 0.00 | 0.00 | 0.15 | ||
| 20260510055935 | 23 | 138 | 9.7 | 12.9 | 0.00 | 0.00 | 0.15 | ||
| 20260510054859 | 23 | 155 | 12.9 | 9.7 | 0.00 | 0.00 | 0.15 | ||
| 20260510053824 | 23 | 132 | 11.3 | 11.3 | 0.00 | 0.00 | 0.15 | ||
| 20260510052748 | 23 | 118 | 12.9 | 12.9 | 0.00 | 0.00 | 0.15 | ||
| 20260510051712 | 24 | 134 | 11.3 | 16.1 | 0.00 | 0.00 | 0.15 | ||
| 20260510050636 | 24 | 131 | 14.5 | 16.1 | 0.00 | 0.00 | 0.15 | ||
| 20260510045600 | 24 | 129 | 11.3 | 11.3 | 0.00 | 0.00 | 0.15 | ||
| 20260510044524 | 25 | 127 | 14.5 | 14.5 | 0.00 | 0.00 | 0.15 | ||
| 20260510043449 | 25 | 110 | 17.7 | 19.3 | 0.00 | 0.00 | 0.15 | ||
| 20260510042413 | 25 | 138 | 16.1 | 12.9 | 0.00 | 0.00 | 0.15 | ||
| 20260510041337 | 25 | 115 | 12.9 | 12.9 | 0.00 | 0.00 | 0.15 | ||
| 20260510040301 | 25 | 117 | 11.3 | 12.9 | 0.00 | 0.00 | 0.15 | ||
| 20260510035225 | 25 | 73 | 9.7 | 9.7 | 0.00 | 0.00 | 0.15 | ||
| 20260510034150 | 25 | 91 | 9.7 | 9.7 | 0.00 | 0.00 | 0.15 | ||
| 20260510033114 | 25 | 79 | 9.7 | 11.3 | 0.00 | 0.00 | 0.15 | ||
| 20260510032038 | 25 | 91 | 9.7 | 9.7 | 0.00 | 0.00 | 0.15 | ||
| 20260510025927 | 26 | 87 | 9.7 | 9.7 | 0.00 | 0.00 | 0.15 | ||
| 20260510024851 | 26 | 87 | 9.7 | 9.7 | 0.00 | 0.00 | 0.15 | ||
| 20260510023815 | 26 | 87 | 9.7 | 9.7 | 0.00 | 0.00 | 0.15 | ||
| 20260510022739 | 26 | 108 | 8.0 | 9.7 | 0.00 | 0.00 | 0.15 | ||
| 20260510021703 | 26 | 98 | 8.0 | 8.0 | 0.00 | 0.00 | 0.15 | ||
| 20260510020628 | 26 | 94 | 8.0 | 8.0 | 0.00 | 0.00 | 0.15 | ||
| 20260510015552 | 26 | 111 | 8.0 | 8.0 | 0.00 | 0.00 | 0.15 | ||
| 20260510014516 | 26 | 115 | 6.4 | 6.4 | 0.00 | 0.00 | 0.15 | ||
| 20260510013440 | 27 | 114 | 6.4 | 8.0 | 0.00 | 0.00 | 0.15 | ||
| 20260510012405 | 27 | 125 | 6.4 | 8.0 | 0.00 | 0.00 | 0.15 | ||
| 20260510011329 | 28 | 117 | 6.4 | 4.8 | 0.00 | 0.00 | 0.15 | ||
| 20260510010253 | 31 | 141 | 4.8 | 6.4 | 0.00 | 0.00 | 0.15 | ||
| 20260510005218 | 32 | 118 | 0.0 | 0.0 | 0.00 | 0.00 | 0.15 | ||
| 20260510004142 | 33 | 150 | 6.4 | 4.8 | 0.00 | 0.00 | 0.15 | ||
| 20260510003106 | 32 | 122 | 6.4 | 8.0 | 0.00 | 0.00 | 0.15 | ||
| 20260510002030 | 33 | 120 | 9.7 | 8.0 | 0.00 | 0.00 | 0.15 | ||
| 20260510000955 | 33 | 100 | 8.0 | 4.8 | 0.00 | 0.00 | 0.15 | ||
| 20260509235919 | 33 | 114 | 8.0 | 11.3 | 0.00 | 0.00 | 0.15 | ||
| 20260509234843 | 33 | 125 | 11.3 | 9.7 | 0.00 | 0.00 | 0.15 | ||
| 20260509233808 | 35 | 136 | 12.9 | 14.5 | 0.00 | 0.00 | 0.15 | ||
| 20260509232732 | 35 | 69 | 0.0 | 0.0 | 0.00 | 0.00 | 0.15 | ||
| 20260509231656 | 37 | 131 | 1.6 | 0.0 | 0.00 | 0.00 | 0.15 | ||
| 20260509230620 | 36 | 124 | 11.3 | 11.3 | 0.00 | 0.00 | 0.15 | ||
| 20260509225545 | 36 | 198 | 0.0 | 0.0 | 0.00 | 0.00 | 0.15 | ||
| 20260509224509 | 37 | 191 | 6.4 | 4.8 | 0.00 | 0.00 | 0.15 | ||
| 20260509223433 | 36 | 204 | 6.4 | 9.7 | 0.00 | 0.00 | 0.15 | ||
| 20260509222358 | 37 | 190 | 8.0 | 3.2 | 0.00 | 0.00 | 0.15 | ||
| 20260509221322 | 36 | 120 | 4.8 | 0.0 | 0.00 | 0.00 | 0.15 | ||
| 20260509220246 | 33 | 359 | 0.0 | 0.0 | 0.00 | 0.00 | 0.15 | ||
| 20260509215211 | 33 | 142 | 0.0 | 0.0 | 0.00 | 0.00 | 0.15 | ||
| 20260509214135 | 32 | 259 | 6.4 | 4.8 | 0.00 | 0.00 | 0.15 | ||
| 20260509213059 | 34 | 217 | 8.0 | 12.9 | 0.00 | 0.00 | 0.15 | ||
| 20260509212023 | 33 | 236 | 3.2 | 0.0 | 0.00 | 0.00 | 0.15 | ||
| 20260509210948 | 33 | 188 | 8.0 | 4.8 | 0.00 | 0.00 | 0.15 | ||
| 20260509205912 | 32 | 256 | 8.0 | 8.0 | 0.00 | 0.00 | 0.15 | ||
| 20260509204836 | 31 | 257 | 6.4 | 0.0 | 0.00 | 0.00 | 0.15 | ||
| 20260509203801 | 32 | 277 | 8.0 | 8.0 | 0.00 | 0.00 | 0.15 | ||
| 20260509202725 | 33 | 93 | 6.4 | 4.8 | 0.00 | 0.00 | 0.15 | ||
| 20260509201649 | 32 | 0 | 0.0 | 0.0 | 0.00 | 0.00 | 0.15 | ||
| 20260509200613 | 32 | 207 | 8.0 | 3.2 | 0.00 | 0.00 | 0.15 | ||
| 20260509195538 | 31 | 278 | 8.0 | 8.0 | 0.00 | 0.00 | 0.15 | ||
| 20260509194502 | 31 | 256 | 9.7 | 11.3 | 0.00 | 0.00 | 0.15 | ||
| 20260509193426 | 32 | 215 | 8.0 | 4.8 | 0.00 | 0.00 | 0.15 | ||
| 20260509192351 | 32 | 176 | 12.9 | 9.7 | 0.00 | 0.00 | 0.15 | ||
| 20260509191315 | 31 | 212 | 9.7 | 16.1 | 0.00 | 0.00 | 0.15 | ||
| 20260509190239 | 30 | 205 | 16.1 | 14.5 | 0.00 | 0.00 | 0.15 | ||
| 20260509185201 | 30 | 248 | 14.5 | 12.9 | 0.00 | 0.00 | 0.15 | ||
| 20260509184125 | 30 | 267 | 14.5 | 11.3 | 0.00 | 0.00 | 0.15 | ||
| 20260509183049 | 31 | 224 | 16.1 | 17.7 | 0.00 | 0.00 | 0.15 | ||
| 20260509182013 | 30 | 226 | 16.1 | 12.9 | 0.00 | 0.00 | 0.15 | ||
| 20260509180938 | 30 | 218 | 11.3 | 14.5 | 0.00 | 0.00 | 0.15 | ||
| 20260509175902 | 30 | 250 | 11.3 | 16.1 | 0.00 | 0.00 | 0.15 | ||
| 20260509174826 | 30 | 232 | 14.5 | 14.5 | 0.00 | 0.00 | 0.15 | ||
| 20260509173750 | 30 | 232 | 12.9 | 12.9 | 0.00 | 0.00 | 0.15 | ||
| 20260509172715 | 30 | 177 | 17.7 | 14.5 | 0.00 | 0.00 | 0.15 | ||
| 20260509171639 | 30 | 219 | 12.9 | 11.3 | 0.00 | 0.00 | 0.15 | ||
| 20260509170603 | 30 | 208 | 16.1 | 20.9 | 0.00 | 0.00 | 0.15 | ||
| 20260509165528 | 30 | 229 | 12.9 | 16.1 | 0.00 | 0.00 | 0.15 | ||
| 20260509164452 | 30 | 160 | 12.9 | 12.9 | 0.00 | 0.00 | 0.15 | ||
| 20260509163416 | 31 | 195 | 8.0 | 17.7 | 0.00 | 0.00 | 0.15 | ||
| 20260509162340 | 31 | 212 | 17.7 | 12.9 | 0.00 | 0.00 | 0.15 | ||
| 20260509161305 | 30 | 186 | 11.3 | 9.7 | 0.00 | 0.00 | 0.15 | ||
| 20260509160229 | 30 | 203 | 11.3 | 12.9 | 0.00 | 0.00 | 0.15 | ||
| 20260509155153 | 28 | 136 | 9.7 | 6.4 | 0.00 | 0.00 | 0.15 | ||
| 20260509154118 | 27 | 218 | 6.4 | 4.8 | 0.10 | 0.00 | 0.15 | ||
| 20260509153042 | 25 | 86 | 0.0 | 0.0 | 0.10 | 0.00 | 0.15 | ||
| 20260509152006 | 24 | 86 | 0.0 | 0.0 | 0.10 | 0.00 | 0.15 | ||
| 20260509150930 | 25 | 86 | 0.0 | 0.0 | 0.10 | 0.00 | 0.15 | ||
| 20260509145855 | 26 | 86 | 0.0 | 0.0 | 0.10 | 0.00 | 0.15 | ||
| 20260509144819 | 24 | 86 | 0.0 | 0.0 | 0.10 | 0.00 | 0.15 | ||
| 20260509143743 | 22 | 86 | 0.0 | 0.0 | 0.05 | 0.00 | 0.15 | ||
| 20260509141632 | 22 | 86 | 0.0 | 0.0 | 0.05 | 0.00 | 0.08 | ||
| 20260509140556 | 22 | 86 | 0.0 | 0.0 | 0.05 | 0.00 | 0.08 | ||
| 20260509135520 | 22 | 86 | 0.0 | 0.0 | 0.05 | 0.00 | 0.05 | ||
| 20260509134445 | 22 | 184 | 6.4 | 9.7 | 0.05 | 0.00 | 0.05 | ||
| 20260509133409 | 22 | 11 | 0.0 | 0.0 | 0.00 | 0.00 | 0.03 | ||
| 20260509132333 | 22 | 11 | 0.0 | 0.0 | 0.00 | 0.00 | 0.03 | ||
| 20260509131257 | 22 | 332 | 6.4 | 12.9 | 0.00 | 0.00 | 0.03 | ||
| 20260509130222 | 22 | 10 | 0.0 | 0.0 | 0.00 | 0.00 | 0.00 | ||
| 20260509125146 | 22 | 359 | 6.4 | 0.0 | 0.00 | 0.00 | 0.00 | ||
| 20260509124110 | 22 | 48 | 9.7 | 8.0 | 0.00 | 0.00 | 0.00 | ||
| 20260509123035 | 22 | 62 | 9.7 | 8.0 | 0.00 | 0.00 | 0.00 | ||
| 20260509121959 | 22 | 39 | 8.0 | 8.0 | 0.00 | 0.00 | 0.00 |